Pagrindinis puslapis
METAR-TAF:

METAR-TAF

Oro uostai :

Kiruna, Švedija

platuma: 67-49N, ilguma: 020-20E, Aukštis: 452 m

Dabartinis oras

Ataskaita buvo paskelbta 29 minutes, ne 09:50 UTC
Vėjas 5 kt iš Pietvakarių
Temperatūra 6°C
Drėgmė 93%
Slėgis 1002 hPa
Matomumas 10 km arba daugiau

METAR: ESNQ 020950Z AUTO 22005KT 9999 OVC011/// 06/05 Q1002

Laikas: 12:19 (10:19 UTC)

Prognozė

Ataskaita buvo paskelbta 20 minutes, ne 09:59 UTC
Prognozė galioja nuo 02 metu 10 UTC su 02 metu 18 UTC
Vėjas 5 kt iš Pietvakarių
Matomumas 10 km arba daugiau
Su prošvaistėmis ne aukštis 1500 ft
Tikimybė 40%
nuo 02 metu 10 UTC su 02 metu 12 UTC
Su prošvaistėmis ne aukštis 800 ft
Tikimybė 40%
nuo 02 metu 17 UTC su 02 metu 18 UTC
Matomumas: 0400 m
ne aukštis 200 ft
rūkas

TAF: ESNQ 020959Z 0210/0218 22005KT 9999 BKN015 PROB40 0210/0212 BKN008 PROB40 0217/0218 0400 FG VV002

Orai ataskaitas ir orų prognozės (METAR, TAF).

turimą stotys yra geltonos ir raudonos taškus žemėlapyje.

Perkelti pele per norėdami pamatyti stoties vardą.

Tada spustelėkite, norėdami matyti oro stebėjimo ir prognozės.

Norėdami pakeisti žemėlapį: spustelėkite ant žalios mygtukų su juodo kryžiaus žemyn,; žalią mygtuką su brūkšneliu, jei norite nutolinti; arba žalių rodyklių gretimoms žemėlapius.


METAR-TAF: